Time;durP1;ratioP1;P1;durP2;ratioP2;P2;SDS_P1;SDS_P2;PMS_P1;PMS_P2;Temp;Humidity;BMP_temperature;BMP_pressure;BME280_temperature;BME280_humidity;BME280_pressure;Samples;Min_cycle;Max_cycle;Signal;HPM_P1;HPM_P2
2021/12/26 00:00:29;;;;;;;9.68;3.80;;;-4.80;99.90;;;;;;5015016;28;20041;-82
2021/12/26 00:02:54;;;;;;;10.43;3.83;;;-4.80;99.90;;;;;;5031331;28;20056;-81
2021/12/26 00:05:20;;;;;;;10.02;3.80;;;-6.40;99.90;;;;;;5030780;28;20036;-81
2021/12/26 00:07:47;;;;;;;11.30;4.65;;;-5.70;99.90;;;;;;4981542;28;20512;-81
2021/12/26 00:10:14;;;;;;;12.30;4.72;;;-6.40;99.90;;;;;;4977119;28;20405;-81
2021/12/26 00:12:40;;;;;;;11.13;3.80;;;-6.20;99.90;;;;;;5030752;28;20071;-81
2021/12/26 00:15:07;;;;;;;9.88;3.85;;;-6.30;99.90;;;;;;4998805;28;20063;-81
2021/12/26 00:17:33;;;;;;;10.85;3.88;;;-6.20;99.90;;;;;;5014326;28;20033;-81
2021/12/26 00:20:00;;;;;;;10.27;3.90;;;-5.90;99.90;;;;;;5030478;28;20041;-81
2021/12/26 00:22:26;;;;;;;9.05;3.78;;;-6.20;99.90;;;;;;5014538;28;20094;-81
2021/12/26 00:24:52;;;;;;;9.07;3.88;;;-5.30;99.90;;;;;;5014913;28;20041;-81
2021/12/26 00:27:19;;;;;;;10.80;4.13;;;-6.20;99.90;;;;;;5031592;28;20214;-81
2021/12/26 00:29:48;;;;;;;9.43;3.78;;;-6.40;99.90;;;;;;4996057;28;20053;-81
2021/12/26 00:32:13;;;;;;;9.50;3.78;;;-6.30;99.90;;;;;;5017447;28;20124;-82
2021/12/26 00:34:40;;;;;;;10.57;4.32;;;-6.30;99.90;;;;;;5027417;28;20496;-82
2021/12/26 00:37:06;;;;;;;9.95;4.30;;;-6.30;99.90;;;;;;5013695;28;20043;-82
2021/12/26 00:39:33;;;;;;;10.27;4.30;;;-6.30;99.90;;;;;;5014845;28;20102;-82
2021/12/26 00:42:00;;;;;;;12.02;4.55;;;-5.80;99.90;;;;;;5014769;28;20029;-82
2021/12/26 00:44:25;;;;;;;10.88;4.30;;;-6.20;99.90;;;;;;5014147;28;20028;-82
2021/12/26 00:46:53;;;;;;;9.50;3.80;;;-6.50;99.90;;;;;;5031364;28;20433;-82
2021/12/26 00:49:23;;;;;;;9.35;4.40;;;-3.70;99.90;;;;;;5002312;28;20163;-82
2021/12/26 00:51:50;;;;;;;10.55;4.18;;;-6.40;99.90;;;;;;5014758;28;20043;-82
2021/12/26 00:54:20;;;;;;;9.57;4.10;;;-6.50;99.90;;;;;;5001005;28;20041;-82
2021/12/26 00:56:46;;;;;;;9.02;3.90;;;-6.30;99.90;;;;;;5029343;28;20100;-82
2021/12/26 00:59:11;;;;;;;8.60;3.47;;;-6.20;99.90;;;;;;4998733;28;20037;-82
2021/12/26 01:01:37;;;;;;;9.35;3.60;;;-5.90;99.90;;;;;;5014863;28;20044;-82
2021/12/26 01:04:03;;;;;;;9.10;3.28;;;-6.30;99.90;;;;;;5012818;28;20032;-82
2021/12/26 01:06:29;;;;;;;9.55;3.75;;;-6.30;99.90;;;;;;5013908;28;20044;-82
2021/12/26 01:08:55;;;;;;;9.05;3.30;;;-6.00;99.90;;;;;;4998147;28;20409;-82
2021/12/26 01:11:36;;;;;;;8.32;3.10;;;-5.10;99.90;;;;;;5012803;28;20075;-82
2021/12/26 01:14:04;;;;;;;8.80;3.10;;;-6.40;99.90;;;;;;5014151;28;20049;-82
2021/12/26 01:16:30;;;;;;;8.88;3.15;;;-6.20;99.90;;;;;;5014542;28;20041;-82
2021/12/26 01:19:03;;;;;;;9.57;3.08;;;-6.20;99.90;;;;;;5013892;28;20064;-82
2021/12/26 01:21:29;;;;;;;8.75;3.08;;;-5.90;99.90;;;;;;4996292;28;20037;-82
2021/12/26 01:23:58;;;;;;;7.93;3.10;;;-5.10;99.90;;;;;;5029889;28;20039;-82
2021/12/26 01:26:25;;;;;;;9.20;3.05;;;-5.10;99.90;;;;;;5014250;28;20052;-82
2021/12/26 01:28:51;;;;;;;8.45;3.10;;;-5.30;99.90;;;;;;5013812;28;20458;-82
2021/12/26 01:31:20;;;;;;;9.90;3.40;;;-6.10;99.90;;;;;;5029879;28;20043;-82
2021/12/26 01:33:53;;;;;;;9.18;3.28;;;-5.70;99.90;;;;;;4998605;28;20040;-83
2021/12/26 01:36:19;;;;;;;8.98;3.33;;;-6.10;99.90;;;;;;5013891;28;20460;-83
2021/12/26 01:38:45;;;;;;;9.05;3.30;;;-6.20;99.90;;;;;;5013487;28;20171;-83
2021/12/26 01:41:11;;;;;;;9.73;3.50;;;-5.10;99.90;;;;;;5014454;28;20494;-82
2021/12/26 01:43:45;;;;;;;8.80;3.30;;;-5.20;99.90;;;;;;5026644;28;20044;-83
2021/12/26 01:46:12;;;;;;;10.00;3.38;;;-6.20;99.90;;;;;;5022977;28;20041;-83
2021/12/26 01:48:38;;;;;;;9.05;3.60;;;-5.30;99.90;;;;;;5032281;28;20049;-83
2021/12/26 01:51:04;;;;;;;9.40;3.63;;;-6.20;99.90;;;;;;5017269;28;20040;-83
2021/12/26 01:53:37;;;;;;;8.48;3.40;;;-6.20;99.90;;;;;;5028538;28;20037;-83
2021/12/26 01:56:05;;;;;;;9.40;3.53;;;-6.20;99.90;;;;;;5001503;28;20102;-83
2021/12/26 01:58:32;;;;;;;8.45;3.17;;;-6.20;99.90;;;;;;5017767;28;20041;-83
2021/12/26 02:01:10;;;;;;;8.38;3.13;;;-4.40;99.90;;;;;;5037025;28;20025;-83
2021/12/26 02:03:38;;;;;;;8.25;3.15;;;-6.20;99.90;;;;;;5037687;28;20160;-82
2021/12/26 02:06:05;;;;;;;9.18;2.90;;;-6.20;99.90;;;;;;5008369;28;20078;-83
2021/12/26 02:08:32;;;;;;;7.88;2.95;;;-4.00;99.90;;;;;;5015487;28;21414;-82
2021/12/26 02:11:00;;;;;;;12.32;3.60;;;-5.50;99.90;;;;;;5013277;28;20081;-83
2021/12/26 02:13:28;;;;;;;8.50;3.00;;;-5.30;99.90;;;;;;5032223;28;20048;-83
2021/12/26 02:15:54;;;;;;;10.05;2.97;;;-6.50;99.90;;;;;;5017738;28;20059;-83
2021/12/26 02:18:21;;;;;;;8.38;3.10;;;-5.80;99.90;;;;;;5046887;28;20541;-83
2021/12/26 02:23:46;;;;;;;9.45;3.20;;;-6.40;99.90;;;;;;5022088;28;20045;-83
2021/12/26 02:28:47;;;;;;;7.70;2.83;;;-6.10;99.90;;;;;;5033672;28;20048;-83
2021/12/26 02:31:14;;;;;;;9.68;3.30;;;-6.90;99.90;;;;;;5017299;28;20581;-83
2021/12/26 02:33:40;;;;;;;7.78;3.08;;;-6.40;99.90;;;;;;5031600;28;20049;-83
2021/12/26 02:36:07;;;;;;;9.50;3.10;;;-5.40;99.90;;;;;;5016255;28;20041;-83
2021/12/26 02:38:34;;;;;;;8.95;3.25;;;-6.70;99.90;;;;;;5042522;28;20033;-83
2021/12/26 02:41:00;;;;;;;9.93;3.70;;;-6.50;99.90;;;;;;5025464;28;20041;-83
2021/12/26 02:43:29;;;;;;;8.48;3.15;;;-6.70;99.90;;;;;;5016916;28;20041;-83
2021/12/26 02:45:54;;;;;;;8.23;3.22;;;-6.40;99.90;;;;;;5032810;28;20044;-83
2021/12/26 02:48:21;;;;;;;8.80;3.05;;;-6.50;99.90;;;;;;4999605;28;20040;-83
2021/12/26 02:50:52;;;;;;;8.05;2.92;;;-6.50;99.90;;;;;;5039994;28;20174;-83
2021/12/26 02:53:20;;;;;;;8.00;2.88;;;-6.70;99.90;;;;;;5020608;28;20045;-83
2021/12/26 02:55:54;;;;;;;8.93;3.20;;;-6.50;99.90;;;;;;5016578;28;20120;-82
2021/12/26 02:58:21;;;;;;;8.05;2.97;;;-5.60;99.90;;;;;;5012084;28;20061;-83
2021/12/26 03:00:52;;;;;;;8.95;3.10;;;-6.70;99.90;;;;;;5016091;28;20612;-82
2021/12/26 03:03:18;;;;;;;8.85;2.80;;;-6.60;99.90;;;;;;5015987;28;20041;-83
2021/12/26 03:05:46;;;;;;;9.13;3.30;;;-6.70;99.90;;;;;;5016687;28;20118;-83
2021/12/26 03:08:16;;;;;;;8.32;3.20;;;-5.20;99.90;;;;;;5033214;28;20531;-83
2021/12/26 03:10:43;;;;;;;8.68;2.90;;;-6.60;99.90;;;;;;5032307;28;20044;-83
2021/12/26 03:13:11;;;;;;;8.25;3.03;;;-6.80;99.90;;;;;;5010575;28;20061;-84
2021/12/26 03:15:38;;;;;;;9.40;3.10;;;-6.60;99.90;;;;;;5016212;28;20032;-83
2021/12/26 03:18:05;;;;;;;8.75;2.90;;;-6.10;99.90;;;;;;5032257;28;20044;-84
2021/12/26 03:20:38;;;;;;;8.90;3.25;;;-6.60;99.90;;;;;;5016198;28;20065;-84
2021/12/26 03:23:06;;;;;;;9.88;3.00;;;-5.30;99.90;;;;;;5035832;28;20055;-83
2021/12/26 03:25:32;;;;;;;7.75;2.80;;;-6.70;99.90;;;;;;5019222;28;20633;-84
2021/12/26 03:27:58;;;;;;;8.57;3.00;;;-5.40;99.90;;;;;;5015972;28;20067;-84
2021/12/26 03:30:27;;;;;;;10.02;3.17;;;-5.90;99.90;;;;;;5014066;28;20029;-84
2021/12/26 03:32:54;;;;;;;7.72;2.92;;;-6.80;99.90;;;;;;5016967;28;20032;-84
2021/12/26 03:35:23;;;;;;;8.52;2.80;;;-6.70;99.90;;;;;;5032650;28;20040;-84
2021/12/26 03:37:49;;;;;;;9.50;3.20;;;-6.60;99.90;;;;;;5032145;28;20321;-84
2021/12/26 03:40:14;;;;;;;7.72;2.63;;;-6.90;99.90;;;;;;5015716;28;20271;-84
2021/12/26 03:42:40;;;;;;;7.53;2.85;;;-7.10;99.90;;;;;;5031944;28;20115;-84
2021/12/26 03:45:08;;;;;;;8.10;2.88;;;-6.20;99.90;;;;;;5015953;28;20037;-84
2021/12/26 03:47:34;;;;;;;8.40;2.92;;;-6.60;99.90;;;;;;5032522;28;20505;-84
2021/12/26 03:50:01;;;;;;;8.00;2.70;;;-5.70;99.90;;;;;;5016021;28;20453;-84
2021/12/26 03:52:27;;;;;;;7.20;2.72;;;-5.70;99.90;;;;;;5016095;28;20041;-82
2021/12/26 03:54:53;;;;;;;9.18;2.80;;;-6.60;99.90;;;;;;5013991;28;20044;-82
2021/12/26 03:57:20;;;;;;;7.07;2.80;;;-6.80;99.90;;;;;;5032695;28;20050;-82
2021/12/26 03:59:46;;;;;;;7.13;2.88;;;-5.90;99.90;;;;;;5031483;28;20036;-83
2021/12/26 04:02:13;;;;;;;7.22;2.80;;;-5.40;99.90;;;;;;5032029;28;20397;-83
2021/12/26 04:04:39;;;;;;;7.72;3.00;;;-4.70;99.90;;;;;;5030489;28;20029;-82
2021/12/26 04:07:05;;;;;;;7.40;2.70;;;-6.70;99.90;;;;;;5015540;28;20068;-82
2021/12/26 04:09:31;;;;;;;7.25;2.60;;;-5.50;99.90;;;;;;4999537;28;20079;-82
2021/12/26 04:11:57;;;;;;;7.10;2.70;;;-5.60;99.90;;;;;;5030203;28;20056;-82
2021/12/26 04:14:23;;;;;;;7.30;2.95;;;-5.40;99.90;;;;;;4995129;28;20041;-82
2021/12/26 04:16:48;;;;;;;7.47;2.88;;;-6.60;99.90;;;;;;5015747;28;20490;-82
2021/12/26 04:19:14;;;;;;;9.10;2.85;;;-6.40;99.90;;;;;;5004993;28;20057;-82
2021/12/26 04:21:40;;;;;;;6.50;2.72;;;-6.40;99.90;;;;;;5022476;28;20037;-83
2021/12/26 04:24:06;;;;;;;7.88;3.15;;;-6.60;99.90;;;;;;4996553;28;20052;-83
2021/12/26 04:26:33;;;;;;;8.45;2.72;;;-5.70;99.90;;;;;;4986060;28;20070;-82
2021/12/26 04:28:58;;;;;;;7.57;2.83;;;-5.40;99.90;;;;;;4999084;28;20045;-82
2021/12/26 04:31:24;;;;;;;7.60;2.92;;;-7.10;99.90;;;;;;5014827;28;20390;-82
2021/12/26 04:33:50;;;;;;;19.65;3.45;;;-6.70;99.90;;;;;;5015092;28;20078;-83
2021/12/26 04:36:17;;;;;;;10.38;3.13;;;-6.70;99.90;;;;;;5031808;28;20041;-83
2021/12/26 04:38:43;;;;;;;8.57;2.80;;;-5.20;99.90;;;;;;5014377;28;20033;-83
2021/12/26 04:41:10;;;;;;;7.28;2.65;;;-6.80;99.90;;;;;;5015446;28;20501;-83
2021/12/26 04:43:37;;;;;;;6.53;2.57;;;-6.80;99.90;;;;;;5007244;28;20429;-83
2021/12/26 04:46:05;;;;;;;7.80;2.92;;;-6.60;99.90;;;;;;5031512;28;20186;-83
2021/12/26 04:48:32;;;;;;;7.05;2.92;;;-5.70;99.90;;;;;;4997444;28;20091;-83
2021/12/26 04:50:59;;;;;;;8.05;2.80;;;-6.70;99.90;;;;;;5031812;28;20401;-83
2021/12/26 04:53:24;;;;;;;6.85;2.60;;;-6.90;99.90;;;;;;5030880;28;20063;-83
2021/12/26 04:55:50;;;;;;;8.77;2.80;;;-6.90;99.90;;;;;;4998348;28;20549;-83
2021/12/26 04:58:16;;;;;;;7.57;2.47;;;-6.30;99.90;;;;;;5031316;28;20044;-84
2021/12/26 05:00:42;;;;;;;9.45;2.90;;;-4.60;99.90;;;;;;4998751;28;20128;-83
2021/12/26 05:03:08;;;;;;;7.65;2.80;;;-7.00;99.90;;;;;;5012644;28;20040;-83
2021/12/26 05:05:35;;;;;;;6.95;2.70;;;-6.90;99.90;;;;;;4997222;28;20037;-83
2021/12/26 05:08:02;;;;;;;7.18;2.85;;;-5.70;99.90;;;;;;5014266;28;20037;-83
2021/12/26 05:10:28;;;;;;;8.70;3.03;;;-6.80;99.90;;;;;;5014923;28;20061;-83
2021/12/26 05:12:55;;;;;;;8.52;2.90;;;-5.60;99.90;;;;;;5029065;28;20052;-83
2021/12/26 05:15:21;;;;;;;8.73;2.90;;;-6.70;99.90;;;;;;5018626;28;20040;-83
2021/12/26 05:17:49;;;;;;;9.13;2.88;;;-6.30;99.90;;;;;;5014804;28;20095;-83
2021/12/26 05:20:18;;;;;;;8.63;3.25;;;-6.80;99.90;;;;;;4998256;28;20052;-83
2021/12/26 05:22:44;;;;;;;7.30;2.78;;;-5.20;99.90;;;;;;5056947;28;20049;-83
2021/12/26 05:25:10;;;;;;;8.65;2.85;;;-6.40;99.90;;;;;;5000577;28;20098;-83
2021/12/26 05:27:37;;;;;;;7.10;3.00;;;-6.60;99.90;;;;;;5009913;28;20513;-83
2021/12/26 05:30:06;;;;;;;7.35;3.00;;;-7.00;99.90;;;;;;5034201;28;20455;-83
2021/12/26 05:32:32;;;;;;;8.85;3.10;;;-6.80;99.90;;;;;;5023823;28;20116;-83
2021/12/26 05:34:58;;;;;;;8.00;2.67;;;-6.90;99.90;;;;;;5031900;28;20112;-84
2021/12/26 05:37:24;;;;;;;8.57;3.00;;;-6.90;99.90;;;;;;5017628;28;20049;-83
2021/12/26 05:39:50;;;;;;;7.50;2.90;;;-6.90;99.90;;;;;;5050146;28;20421;-83
2021/12/26 05:42:16;;;;;;;8.88;3.20;;;-6.60;99.90;;;;;;5033788;28;20032;-84
2021/12/26 05:44:46;;;;;;;7.88;2.88;;;-5.70;99.90;;;;;;5025370;28;20562;-83
2021/12/26 05:47:12;;;;;;;8.30;3.13;;;-6.70;99.90;;;;;;5000571;28;20033;-83
2021/12/26 05:49:38;;;;;;;8.27;3.00;;;-6.80;99.90;;;;;;5018067;28;20497;-83
2021/12/26 05:52:04;;;;;;;12.05;3.35;;;-7.00;99.90;;;;;;5001632;28;20159;-83
2021/12/26 05:54:31;;;;;;;7.15;2.88;;;-6.70;99.90;;;;;;5014925;28;20096;-83
2021/12/26 05:56:56;;;;;;;7.65;3.10;;;-6.30;99.90;;;;;;5017862;28;20041;-83
2021/12/26 05:59:22;;;;;;;8.00;2.88;;;-6.80;99.90;;;;;;5014147;28;20060;-82
2021/12/26 06:01:48;;;;;;;8.63;3.00;;;-7.10;99.90;;;;;;5019094;28;20051;-83
2021/12/26 06:04:14;;;;;;;7.78;2.95;;;;;;;;;;5016623;28;20437;-83
2021/12/26 06:06:40;;;;;;;8.52;2.95;;;-6.60;99.90;;;;;;5014133;28;20052;-83
2021/12/26 06:09:06;;;;;;;7.85;3.08;;;-7.00;99.90;;;;;;4984360;28;20048;-83
2021/12/26 06:11:32;;;;;;;6.60;2.63;;;-6.80;99.90;;;;;;5032640;28;20136;-83
2021/12/26 06:13:58;;;;;;;9.90;2.90;;;-6.70;99.90;;;;;;5031752;28;20584;-83
2021/12/26 06:16:24;;;;;;;9.10;3.00;;;-6.20;99.90;;;;;;5031916;28;20263;-83
2021/12/26 06:18:50;;;;;;;8.30;3.17;;;-4.70;99.90;;;;;;5016496;28;20116;-83
2021/12/26 06:21:15;;;;;;;8.32;3.00;;;-5.40;99.90;;;;;;5002120;28;20048;-82
2021/12/26 06:23:41;;;;;;;8.77;2.90;;;-6.60;99.90;;;;;;5013948;28;20482;-83
2021/12/26 06:26:07;;;;;;;7.68;2.80;;;-5.70;99.90;;;;;;5030197;28;20037;-83
2021/12/26 06:28:32;;;;;;;8.07;3.28;;;-7.00;99.90;;;;;;5016774;28;20047;-83
2021/12/26 06:30:58;;;;;;;7.60;3.30;;;;;;;;;;5016679;28;20037;-82
2021/12/26 06:33:24;;;;;;;7.80;3.15;;;-6.80;99.90;;;;;;5012934;28;20494;-83
2021/12/26 06:35:50;;;;;;;7.43;3.03;;;-5.50;99.90;;;;;;5027538;28;20044;-83
2021/12/26 06:38:16;;;;;;;7.35;3.00;;;-6.90;99.90;;;;;;5033594;28;20565;-83
2021/12/26 06:40:42;;;;;;;9.40;3.78;;;-6.80;99.90;;;;;;5017203;28;20187;-82
2021/12/26 06:43:08;;;;;;;8.10;3.08;;;-6.80;99.90;;;;;;5017505;28;20524;-82
2021/12/26 06:45:34;;;;;;;10.13;3.28;;;-6.80;99.90;;;;;;4999725;28;20049;-82
2021/12/26 06:48:02;;;;;;;8.32;2.97;;;-7.10;99.90;;;;;;5016552;28;20037;-83
2021/12/26 06:50:28;;;;;;;9.50;3.10;;;-6.80;99.90;;;;;;5016604;28;20037;-83
2021/12/26 06:52:54;;;;;;;10.02;3.40;;;-6.10;99.90;;;;;;5002022;28;20032;-83
2021/12/26 06:55:20;;;;;;;8.57;3.30;;;-6.60;99.90;;;;;;5008776;28;20037;-83
2021/12/26 06:57:46;;;;;;;8.35;3.20;;;-6.90;99.90;;;;;;5017229;28;20524;-82
2021/12/26 07:00:15;;;;;;;8.00;3.20;;;-6.80;99.90;;;;;;5003669;28;20481;-83
2021/12/26 07:02:42;;;;;;;9.50;4.05;;;-6.80;99.90;;;;;;5031997;28;20048;-83
2021/12/26 07:05:12;;;;;;;8.82;3.70;;;-6.00;99.90;;;;;;4994729;28;20524;-83
2021/12/26 07:07:39;;;;;;;9.43;3.60;;;-6.80;99.90;;;;;;5031770;28;20068;-83
2021/12/26 07:10:06;;;;;;;8.00;3.17;;;-6.90;99.90;;;;;;5032670;28;20044;-83
2021/12/26 07:12:32;;;;;;;8.60;3.65;;;-6.80;99.90;;;;;;5026609;28;20097;-82
2021/12/26 07:14:58;;;;;;;8.15;3.40;;;;;;;;;;4998088;28;20053;-83
2021/12/26 07:17:23;;;;;;;8.38;3.53;;;-6.10;99.90;;;;;;5016043;28;20044;-82
2021/12/26 07:19:49;;;;;;;8.73;3.30;;;-6.10;99.90;;;;;;4999675;28;20078;-82
2021/12/26 07:22:15;;;;;;;8.32;3.50;;;-7.00;99.90;;;;;;5001965;28;20078;-83
2021/12/26 07:24:43;;;;;;;8.63;3.30;;;-7.00;99.90;;;;;;4999946;28;20505;-83
2021/12/26 07:27:11;;;;;;;9.32;3.40;;;-7.00;99.90;;;;;;5000998;28;20445;-83
2021/12/26 07:29:37;;;;;;;10.43;3.60;;;-6.70;99.90;;;;;;5039967;28;20462;-82
2021/12/26 07:32:03;;;;;;;9.17;3.40;;;-6.50;99.90;;;;;;5016093;28;20037;-82
2021/12/26 07:34:29;;;;;;;8.68;3.83;;;-6.70;99.90;;;;;;5000348;28;20097;-83
2021/12/26 07:36:55;;;;;;;8.03;3.60;;;-6.90;99.90;;;;;;4999751;28;20033;-82
2021/12/26 07:39:21;;;;;;;9.38;3.70;;;-6.60;99.90;;;;;;5006732;28;20037;-83
2021/12/26 07:41:46;;;;;;;9.10;3.60;;;-6.50;99.90;;;;;;5010473;28;20037;-83
2021/12/26 07:44:12;;;;;;;8.32;3.58;;;-6.90;99.90;;;;;;4999479;28;20068;-82
2021/12/26 07:46:38;;;;;;;9.87;3.70;;;-7.00;99.90;;;;;;5003169;28;20043;-82
2021/12/26 07:49:04;;;;;;;10.25;3.92;;;-6.00;99.90;;;;;;5032421;28;20483;-82
2021/12/26 07:51:29;;;;;;;8.55;3.45;;;-5.50;99.90;;;;;;4996323;28;20123;-83
2021/12/26 07:54:00;;;;;;;10.70;3.60;;;-6.50;99.90;;;;;;4997656;28;20481;-82
2021/12/26 07:56:25;;;;;;;8.68;3.80;;;-6.80;99.90;;;;;;5031902;28;20059;-82
2021/12/26 07:58:51;;;;;;;10.88;3.97;;;-6.90;99.90;;;;;;5014822;28;20501;-83
2021/12/26 08:01:17;;;;;;;8.93;4.20;;;-6.80;99.90;;;;;;5015147;28;20573;-82
2021/12/26 08:03:43;;;;;;;8.93;3.95;;;-6.90;99.90;;;;;;5043829;28;20445;-82
2021/12/26 08:06:13;;;;;;;8.63;3.67;;;-7.00;99.90;;;;;;5013797;28;20185;-82
2021/12/26 08:08:38;;;;;;;10.05;4.00;;;-5.70;99.90;;;;;;5015445;28;20115;-82
2021/12/26 08:11:04;;;;;;;11.13;4.40;;;-6.90;99.90;;;;;;5005453;28;20050;-83
2021/12/26 08:13:31;;;;;;;8.83;3.83;;;-5.00;99.90;;;;;;5014314;28;20047;-83
2021/12/26 08:15:57;;;;;;;8.55;3.92;;;-5.50;99.90;;;;;;5029960;28;20056;-83
2021/12/26 08:18:23;;;;;;;9.73;3.80;;;-6.90;99.90;;;;;;4998664;28;20029;-83
2021/12/26 08:20:48;;;;;;;12.52;4.25;;;-6.60;99.90;;;;;;4997624;28;20041;-82
2021/12/26 08:23:14;;;;;;;9.55;3.85;;;-6.40;99.90;;;;;;5031314;28;20267;-82
2021/12/26 08:25:40;;;;;;;10.07;4.23;;;-6.30;99.90;;;;;;4996439;28;20037;-83
2021/12/26 08:28:06;;;;;;;9.93;4.32;;;-6.60;99.90;;;;;;5012672;28;20120;-83
2021/12/26 08:30:34;;;;;;;9.25;4.38;;;-6.60;99.90;;;;;;4982154;28;20083;-83
2021/12/26 08:33:05;;;;;;;9.93;4.43;;;-6.40;99.90;;;;;;4991543;28;20032;-82
2021/12/26 08:35:31;;;;;;;10.75;4.07;;;-6.50;99.90;;;;;;5014201;28;20040;-82
2021/12/26 08:37:57;;;;;;;101.22;10.98;;;-6.30;99.90;;;;;;5015541;28;20035;-83
2021/12/26 08:40:23;;;;;;;10.38;4.35;;;;;;;;;;5014196;28;20044;-83
2021/12/26 08:42:48;;;;;;;10.50;4.22;;;-6.30;99.90;;;;;;5028047;28;20049;-83
2021/12/26 08:45:14;;;;;;;9.90;4.63;;;-5.50;99.90;;;;;;5029627;28;20045;-82
2021/12/26 08:47:40;;;;;;;9.70;4.25;;;-5.70;99.90;;;;;;5012650;28;20417;-82
2021/12/26 08:50:09;;;;;;;9.82;4.53;;;-5.50;99.90;;;;;;5041593;28;20405;-84
2021/12/26 08:52:37;;;;;;;9.15;4.00;;;-6.10;99.90;;;;;;5031775;28;20049;-83
2021/12/26 08:55:04;;;;;;;10.27;4.22;;;-6.10;99.90;;;;;;5000782;28;20544;-83
2021/12/26 08:57:32;;;;;;;9.05;3.80;;;-6.00;99.90;;;;;;5014185;28;20043;-83
2021/12/26 08:59:58;;;;;;;9.93;4.10;;;-4.80;99.90;;;;;;5033720;28;20037;-83
2021/12/26 09:02:24;;;;;;;10.30;4.00;;;-4.90;99.90;;;;;;4998643;28;20120;-82
2021/12/26 09:04:50;;;;;;;9.77;3.95;;;-4.70;99.90;;;;;;5014243;28;20175;-82
2021/12/26 09:07:16;;;;;;;9.20;3.85;;;-5.60;99.90;;;;;;5001342;28;20052;-83
2021/12/26 09:09:42;;;;;;;10.32;4.13;;;-4.00;99.90;;;;;;5026206;28;20056;-82
2021/12/26 09:12:09;;;;;;;9.80;4.00;;;-5.40;99.90;;;;;;5033990;28;20074;-82
2021/12/26 09:14:36;;;;;;;9.02;3.97;;;-5.40;99.90;;;;;;5017901;28;20045;-84
2021/12/26 09:17:02;;;;;;;10.30;3.97;;;-4.30;99.90;;;;;;4997890;28;20099;-84
2021/12/26 09:19:28;;;;;;;11.15;4.20;;;-5.10;99.90;;;;;;5031358;28;20040;-84
2021/12/26 09:21:59;;;;;;;10.70;3.80;;;-5.00;99.90;;;;;;5015789;28;20041;-85
2021/12/26 09:24:25;;;;;;;9.82;4.20;;;-5.30;99.90;;;;;;5024262;28;20068;-85
2021/12/26 09:26:51;;;;;;;11.75;4.25;;;-4.70;99.90;;;;;;4999072;28;20190;-84
2021/12/26 09:29:17;;;;;;;9.73;3.72;;;-3.70;99.90;;;;;;4993689;28;20046;-85
2021/12/26 09:31:44;;;;;;;8.43;3.70;;;-4.50;99.90;;;;;;5017971;28;20048;-85
2021/12/26 09:34:09;;;;;;;11.05;4.00;;;-5.00;99.90;;;;;;5017311;28;20174;-85
2021/12/26 09:36:35;;;;;;;10.68;4.07;;;-4.90;99.90;;;;;;5016798;28;20123;-85
2021/12/26 09:39:03;;;;;;;9.13;3.63;;;-3.90;99.90;;;;;;5030831;28;20037;-85
2021/12/26 09:41:29;;;;;;;9.18;3.67;;;-4.60;99.90;;;;;;5003621;28;20064;-84
2021/12/26 09:43:55;;;;;;;9.05;3.72;;;-3.50;99.90;;;;;;4985664;28;20126;-85
2021/12/26 09:46:20;;;;;;;11.25;4.50;;;-4.00;99.90;;;;;;5020454;28;20048;-83
2021/12/26 09:48:46;;;;;;;9.07;3.53;;;-4.10;99.90;;;;;;5018179;28;20103;-82
2021/12/26 09:51:13;;;;;;;8.75;3.40;;;-4.20;99.90;;;;;;5018215;28;20134;-83
2021/12/26 09:53:43;;;;;;;9.18;3.85;;;-3.90;99.90;;;;;;5033030;28;20406;-82
2021/12/26 09:56:10;;;;;;;7.95;3.35;;;-2.90;99.90;;;;;;5005190;28;20327;-82
2021/12/26 09:58:54;;;;;;;9.20;4.00;;;-3.00;99.90;;;;;;5002245;28;20037;-83
2021/12/26 10:01:38;;;;;;;10.45;3.80;;;-3.20;99.90;;;;;;5017047;28;20041;-82
2021/12/26 10:04:26;;;;;;;9.82;3.95;;;-3.60;99.90;;;;;;5033211;28;20041;-82
2021/12/26 10:07:05;;;;;;;9.25;3.88;;;-4.00;99.90;;;;;;5015966;28;20112;-82
2021/12/26 10:09:32;;;;;;;10.27;4.10;;;-3.90;99.90;;;;;;5016152;28;20394;-83
2021/12/26 10:12:00;;;;;;;10.45;3.40;;;-1.90;99.90;;;;;;5032055;28;20060;-83
2021/12/26 10:14:29;;;;;;;11.32;3.83;;;-3.00;99.90;;;;;;5015597;28;20041;-83
2021/12/26 10:16:57;;;;;;;10.90;3.67;;;-3.60;99.90;;;;;;5015163;28;20060;-83
2021/12/26 10:19:23;;;;;;;8.57;3.47;;;-2.90;99.90;;;;;;5030772;28;20072;-83
2021/12/26 10:22:02;;;;;;;8.18;3.40;;;-2.40;99.90;;;;;;5000076;28;20067;-83
2021/12/26 10:24:36;;;;;;;8.52;3.58;;;-2.80;99.90;;;;;;5009190;28;20037;-84
2021/12/26 10:27:09;;;;;;;8.38;3.50;;;-3.40;99.90;;;;;;5034010;28;20061;-83
2021/12/26 10:29:42;;;;;;;9.45;4.00;;;-3.30;99.90;;;;;;5029312;28;20448;-84
2021/12/26 10:32:08;;;;;;;11.27;4.47;;;-3.20;99.90;;;;;;5016450;28;20037;-83
2021/12/26 10:34:46;;;;;;;11.32;4.07;;;-3.20;99.90;;;;;;5033256;28;20073;-84
2021/12/26 10:37:33;;;;;;;8.98;3.60;;;-3.00;99.90;;;;;;5014015;28;20044;-84
2021/12/26 10:40:11;;;;;;;9.65;3.95;;;-3.10;99.90;;;;;;5026879;28;20438;-84
2021/12/26 10:42:40;;;;;;;10.05;3.97;;;-3.10;99.90;;;;;;5016818;28;20482;-83
2021/12/26 10:45:10;;;;;;;10.63;4.10;;;-2.20;99.90;;;;;;5012656;28;20029;-84
2021/12/26 10:47:38;;;;;;;9.55;3.70;;;-2.90;99.90;;;;;;5030223;28;20447;-83
2021/12/26 10:50:16;;;;;;;9.55;4.00;;;-1.90;99.90;;;;;;5033095;28;20071;-84
2021/12/26 10:52:50;;;;;;;9.27;4.15;;;-0.90;99.90;;;;;;5017428;28;20041;-84
2021/12/26 10:55:18;;;;;;;8.88;3.60;;;-2.90;99.90;;;;;;5035280;28;20040;-84
2021/12/26 10:57:50;;;;;;;9.75;3.80;;;-1.60;99.90;;;;;;5017009;28;20086;-84
2021/12/26 11:00:23;;;;;;;8.68;3.80;;;-2.70;99.90;;;;;;5026285;28;20041;-83
2021/12/26 11:02:52;;;;;;;8.82;3.85;;;-2.70;99.90;;;;;;5016114;28;20506;-84
2021/12/26 11:05:25;;;;;;;10.18;3.60;;;-0.60;99.90;;;;;;5017121;28;20033;-83
2021/12/26 11:07:55;;;;;;;10.38;4.05;;;-2.60;99.90;;;;;;5033024;28;20045;-83
2021/12/26 11:10:26;;;;;;;8.95;3.55;;;-2.70;99.90;;;;;;5016840;28;20080;-83
2021/12/26 11:12:55;;;;;;;8.52;3.72;;;-2.50;99.90;;;;;;5033245;28;20063;-83
2021/12/26 11:15:24;;;;;;;9.07;3.67;;;-2.10;99.90;;;;;;5016823;28;20051;-83
2021/12/26 11:18:04;;;;;;;9.98;4.28;;;-2.50;99.90;;;;;;5033101;28;20128;-84
2021/12/26 11:20:51;;;;;;;8.82;3.90;;;-2.40;99.90;;;;;;5015311;28;20137;-84
2021/12/26 11:23:20;;;;;;;9.70;3.70;;;-2.40;99.90;;;;;;5034270;28;20041;-84
2021/12/26 11:25:50;;;;;;;9.57;3.88;;;-1.80;99.90;;;;;;5035505;28;20041;-84
2021/12/26 11:28:22;;;;;;;8.88;3.53;;;-2.30;99.90;;;;;;5016366;28;20041;-84
2021/12/26 11:30:48;;;;;;;9.60;3.90;;;-2.20;99.90;;;;;;4998042;28;20045;-84
2021/12/26 11:33:14;;;;;;;8.68;3.58;;;-2.10;99.90;;;;;;4978504;28;20297;-84
2021/12/26 11:35:40;;;;;;;10.35;4.13;;;-2.10;99.90;;;;;;5016140;28;20045;-84
2021/12/26 11:38:13;;;;;;;10.35;4.47;;;-2.00;99.90;;;;;;4999428;28;20029;-84
2021/12/26 11:40:41;;;;;;;10.00;4.28;;;-2.00;99.90;;;;;;5016706;28;20045;-84
2021/12/26 11:43:16;;;;;;;9.73;3.70;;;-1.90;99.90;;;;;;5032965;28;20091;-84
2021/12/26 11:46:09;;;;;;;8.95;3.55;;;-1.80;99.90;;;;;;5017750;28;20065;-84
2021/12/26 11:49:08;;;;;;;10.30;3.40;;;-1.50;99.90;;;;;;5015977;28;20063;-84
2021/12/26 11:51:49;;;;;;;8.48;3.20;;;-0.40;99.90;;;;;;5016241;28;20090;-83
2021/12/26 11:54:47;;;;;;;9.18;3.85;;;-1.70;99.90;;;;;;5019473;28;20068;-83
2021/12/26 11:57:16;;;;;;;10.75;3.83;;;-1.60;99.90;;;;;;5030390;28;20048;-84
2021/12/26 11:59:50;;;;;;;9.70;3.60;;;-1.50;99.90;;;;;;5031967;28;20440;-85
2021/12/26 12:02:44;;;;;;;9.20;3.63;;;-1.50;99.90;;;;;;5032435;28;20037;-84
2021/12/26 12:05:18;;;;;;;9.07;3.78;;;-1.50;99.90;;;;;;5015730;28;20071;-84
2021/12/26 12:08:00;;;;;;;9.30;3.80;;;-1.40;99.90;;;;;;5032345;28;20079;-84
2021/12/26 12:10:55;;;;;;;8.40;3.25;;;-1.40;99.90;;;;;;5015144;28;20083;-85
2021/12/26 12:13:26;;;;;;;10.65;3.60;;;-1.30;99.90;;;;;;5015429;28;20052;-84
2021/12/26 12:15:55;;;;;;;9.80;3.78;;;-1.30;99.90;;;;;;5015724;28;20052;-84
2021/12/26 12:18:35;;;;;;;10.13;3.45;;;-1.30;99.90;;;;;;5032060;28;20037;-84
2021/12/26 12:21:28;;;;;;;9.02;3.53;;;-1.30;99.90;;;;;;5011922;28;20044;-84
2021/12/26 12:24:19;;;;;;;8.35;3.33;;;-1.20;99.90;;;;;;5019470;28;20040;-84
2021/12/26 12:26:57;;;;;;;9.30;3.80;;;-1.10;99.90;;;;;;5019820;28;20412;-84
2021/12/26 12:29:28;;;;;;;11.35;3.70;;;-1.10;99.90;;;;;;5032102;28;20075;-84
2021/12/26 12:32:16;;;;;;;8.98;3.65;;;-0.90;99.90;;;;;;5015299;28;20041;-84
2021/12/26 12:35:05;;;;;;;10.70;3.67;;;-1.10;99.90;;;;;;5015456;28;20041;-84
2021/12/26 12:37:40;;;;;;;8.45;3.30;;;-1.10;99.90;;;;;;5031399;28;20036;-84
2021/12/26 12:40:30;;;;;;;8.93;3.60;;;-1.00;99.90;;;;;;5015227;28;20037;-84
2021/12/26 12:43:19;;;;;;;7.90;3.35;;;-1.00;99.90;;;;;;5024485;28;20099;-84
2021/12/26 12:46:05;;;;;;;8.35;3.40;;;-1.00;99.90;;;;;;5004712;28;20238;-84
2021/12/26 12:48:34;;;;;;;7.50;3.08;;;0.40;99.90;;;;;;5014295;28;20048;-83
2021/12/26 12:51:13;;;;;;;9.88;3.50;;;-0.90;99.90;;;;;;4333580;28;10000673;-84
2021/12/26 12:53:46;;;;;;;9.75;3.60;;;-0.90;99.90;;;;;;5027664;28;20509;-84
2021/12/26 12:56:32;;;;;;;11.27;4.10;;;-0.90;99.90;;;;;;5024855;28;20056;-84
2021/12/26 12:59:13;;;;;;;8.35;3.38;;;-0.30;99.90;;;;;;5008798;28;20397;-84